Ostrevent II — FI3999 — position and weather

sailwx.info

Track history (hours):
 
Tides and Currents Weather Stations Pressure Air Temp Water Temp Dewpoint Dewpoint Depression Visibility Wind Speed Wind Dir Waves Ship Positions

Ostrevent II

Last reported at 2017-Oct-15 17:21 UTC. Time now 2017-Nov-18 04:51 UTC.
Position N 48°37' W 002°01'.
Warning: this ship's position is 33 days out of date.

Length 10 m.

Type: Sailing vessel. MMSI: 227228830.

Date/timePositionNaut miles runAvg speedWind from/ knotsBaromVisibWave heightAir tempDewpointWater temp
2017-Oct-15 17:21N 48°37' W 002°01'1 1.6
2017-Oct-15 17:00N 48°37' W 002°02'1 2.1
2017-Oct-15 16:24N 48°38' W 002°02'2 4.0
2017-Oct-15 15:58N 48°40' W 002°02'3 4.6
2017-Oct-15 15:23N 48°42' W 002°00'6 0.2
2017-Oct-14 15:13N 48°47' W 001°54'1 5.6
2017-Oct-14 15:00N 48°46' W 001°56'3 5.6
2017-Oct-14 14:30N 48°44' W 001°58'3 5.4
2017-Oct-14 14:00N 48°42' W 002°01'3 5.4
2017-Oct-14 13:28N 48°39' W 002°03'  
Track history (hours):
 
Tides and Currents Weather Stations Pressure Air Temp Water Temp Dewpoint Dewpoint Depression Visibility Wind Speed Wind Dir Waves Ship Positions

Ostrevent II

Last reported at 2017-Oct-15 17:21 UTC. Time now 2017-Nov-18 04:51 UTC.
Position N 48°37' W 002°01'.
Warning: this ship's position is 33 days out of date.

Length 10 m.

Type: Sailing vessel. MMSI: 227228830.

Date/timePositionNaut miles runAvg speedWind from/ knotsBaromVisibWave heightAir tempDewpointWater temp
2017-Oct-15 17:21N 48°37' W 002°01'1 1.6
2017-Oct-15 17:00N 48°37' W 002°02'1 2.1
2017-Oct-15 16:24N 48°38' W 002°02'2 4.0
2017-Oct-15 15:58N 48°40' W 002°02'3 4.6
2017-Oct-15 15:23N 48°42' W 002°00'6 0.2
2017-Oct-14 15:13N 48°47' W 001°54'1 5.6
2017-Oct-14 15:00N 48°46' W 001°56'3 5.6
2017-Oct-14 14:30N 48°44' W 001°58'3 5.4
2017-Oct-14 14:00N 48°42' W 002°01'3 5.4
2017-Oct-14 13:28N 48°39' W 002°03'  

Dump ship's entire track history